createdAt,value
2023-01-13T00:00:02.768Z,92.84
2023-01-13T00:05:03.217Z,92.9
2023-01-13T00:10:03.526Z,94.1
2023-01-13T00:15:03.356Z,92.67
2023-01-13T00:20:03.051Z,91.97
2023-01-13T00:25:02.958Z,92.81
2023-01-13T00:30:02.767Z,93.06
2023-01-13T00:35:03.480Z,93.59
2023-01-13T00:40:03.462Z,92.69
2023-01-13T00:45:03.265Z,89.94
2023-01-13T00:50:03.416Z,90.42
2023-01-13T00:55:03.553Z,90.38
2023-01-13T01:00:03.001Z,89.11
2023-01-13T01:05:02.666Z,88.31
2023-01-13T01:10:02.619Z,88.89
2023-01-13T01:15:03.282Z,88.82
2023-01-13T01:20:03.417Z,87.66
2023-01-13T01:25:03.439Z,87.7
2023-01-13T01:30:03.648Z,87.3
2023-01-13T01:35:03.164Z,88.7
2023-01-13T01:40:03.649Z,87.5
2023-01-13T01:45:02.870Z,88.41
2023-01-13T01:50:02.744Z,88.67
2023-01-13T01:55:03.633Z,88.15
2023-01-13T02:00:03.321Z,87.8
2023-01-13T02:05:03.102Z,86.5
2023-01-13T02:10:03.452Z,87.97
2023-01-13T02:15:02.891Z,87.31
2023-01-13T02:20:03.520Z,88.22
2023-01-13T02:25:02.858Z,86.98
2023-01-13T02:30:03.510Z,87.68
2023-01-13T02:35:03.297Z,87.04
2023-01-13T02:40:02.925Z,86.35
2023-01-13T02:45:02.700Z,86.54
2023-01-13T02:50:02.650Z,86.71
2023-01-13T02:55:03.087Z,84.93
2023-01-13T03:00:03.391Z,86.47
2023-01-13T03:05:03.468Z,85.17
2023-01-13T03:10:02.980Z,86.07
2023-01-13T03:15:03.278Z,86.42
2023-01-13T03:20:02.967Z,87.29
2023-01-13T03:25:02.750Z,86.8
2023-01-13T03:30:02.549Z,86.54
2023-01-13T03:35:03.231Z,86.94
2023-01-13T03:40:03.249Z,86.13
2023-01-13T03:45:03.023Z,86.43
2023-01-13T03:50:02.903Z,87.02
2023-01-13T03:55:03.684Z,86.1
2023-01-13T04:00:03.156Z,86.17
2023-01-13T04:05:03.235Z,85.77
2023-01-13T04:10:02.932Z,86.77
2023-01-13T04:15:02.983Z,86.59
2023-01-13T04:20:02.661Z,86.16
2023-01-13T04:25:02.648Z,86.29
2023-01-13T04:30:02.697Z,86.05
2023-01-13T04:35:02.537Z,85.89
2023-01-13T04:40:03.524Z,86.47
2023-01-13T04:45:03.331Z,85.96
2023-01-13T04:50:02.979Z,85
2023-01-13T04:55:03.460Z,84.7
2023-01-13T05:00:03.425Z,84.87
2023-01-13T05:05:03.517Z,85.27
2023-01-13T05:10:03.383Z,85.31
2023-01-13T05:15:02.980Z,85.2
2023-01-13T05:20:02.715Z,85.66
2023-01-13T05:25:03.501Z,84.68
2023-01-13T05:30:02.874Z,85.31
2023-01-13T05:35:02.811Z,85.08
2023-01-13T05:40:02.742Z,83.42
2023-01-13T05:45:03.500Z,84.12
2023-01-13T05:50:03.377Z,85.22
2023-01-13T05:55:03.263Z,84.08
2023-01-13T06:00:02.782Z,85.3
2023-01-13T06:05:02.573Z,85.11
2023-01-13T06:10:03.362Z,85.3
2023-01-13T06:15:03.155Z,84.69
2023-01-13T06:20:02.780Z,85.18
2023-01-13T06:25:02.552Z,84.78
2023-01-13T06:30:03.248Z,87.5
2023-01-13T06:35:05.947Z,90.64
2023-01-13T06:40:03.097Z,88.66
2023-01-13T06:45:03.426Z,92.61
2023-01-13T06:50:03.422Z,95.24
2023-01-13T06:55:03.653Z,96.76
2023-01-13T07:00:03.148Z,97.61
2023-01-13T07:05:02.967Z,97.89
2023-01-13T07:10:02.843Z,98.01
2023-01-13T07:15:02.482Z,97.85
2023-01-13T07:20:03.454Z,97.43
2023-01-13T07:25:02.586Z,97.35
2023-01-13T07:30:02.601Z,96.61
2023-01-13T07:35:02.498Z,95.94
2023-01-13T07:40:02.525Z,94.85
2023-01-13T07:45:03.557Z,95.37
2023-01-13T07:50:03.211Z,95.06
2023-01-13T07:55:03.282Z,95.5
2023-01-13T08:00:03.072Z,89.28
2023-01-13T08:05:02.964Z,86.73
2023-01-13T08:10:02.600Z,88.55
2023-01-13T08:15:03.360Z,84.45
2023-01-13T08:20:03.365Z,83.27
2023-01-13T08:25:02.875Z,80
2023-01-13T08:30:02.683Z,83.42
2023-01-13T08:35:03.248Z,86.06
2023-01-13T08:40:03.284Z,87.17
2023-01-13T08:45:03.232Z,87.69
2023-01-13T08:50:02.782Z,89.8
2023-01-13T08:55:03.162Z,90.96
2023-01-13T09:00:03.289Z,92.3
2023-01-13T09:05:03.101Z,92.1
2023-01-13T09:10:03.094Z,92.52
2023-01-13T09:15:02.792Z,93.87
2023-01-13T09:20:02.641Z,91.59
2023-01-13T09:25:02.578Z,90.21
2023-01-13T09:30:03.203Z,90.15
2023-01-13T09:35:02.999Z,89.4
2023-01-13T09:40:02.767Z,89.75
2023-01-13T09:45:02.565Z,88.08
2023-01-13T09:50:03.167Z,89.18
2023-01-13T09:55:03.222Z,88.56
2023-01-13T10:00:03.378Z,88.98
2023-01-13T10:05:03.296Z,89.11
2023-01-13T10:10:02.981Z,88.51
2023-01-13T10:15:02.998Z,89.05
2023-01-13T10:20:03.048Z,89.19
2023-01-13T10:25:02.281Z,88.1
2023-01-13T10:30:02.564Z,88.06
2023-01-13T10:35:03.227Z,87.74
2023-01-13T10:40:03.063Z,87.53
2023-01-13T10:45:02.872Z,86.45
2023-01-13T10:50:02.478Z,84.17
2023-01-13T10:55:03.652Z,81.47
2023-01-13T11:00:03.009Z,82.27
2023-01-13T11:05:02.941Z,81.46
2023-01-13T11:10:02.553Z,82.09
2023-01-13T11:15:03.316Z,79.46
2023-01-13T11:20:03.176Z,82.5
2023-01-13T11:25:02.991Z,80.83
2023-01-13T11:30:02.831Z,78.67
2023-01-13T11:35:02.626Z,77.54
2023-01-13T11:40:02.606Z,77.61
2023-01-13T11:45:03.488Z,76.86
2023-01-13T11:50:03.189Z,75.32
2023-01-13T11:55:03.228Z,76.52
2023-01-13T12:00:02.791Z,77.35
2023-01-13T12:05:03.366Z,76.18
2023-01-13T12:10:05.659Z,74.22
2023-01-13T12:15:02.621Z,72.83
2023-01-13T12:20:02.332Z,70.91
2023-01-13T12:25:03.499Z,70.59
2023-01-13T12:30:03.244Z,69.98
2023-01-13T12:35:02.886Z,69.26
2023-01-13T12:40:02.660Z,71.17
2023-01-13T12:45:03.284Z,71.54
2023-01-13T12:50:03.137Z,70.97
2023-01-13T12:55:03.389Z,71.94
2023-01-13T13:00:02.875Z,71.83
2023-01-13T13:05:02.723Z,69.42
2023-01-13T13:10:03.282Z,67.84
2023-01-13T13:15:04.643Z,68.25
2023-01-13T13:20:02.999Z,65.73
2023-01-13T13:25:02.751Z,64.51
2023-01-13T13:30:02.551Z,67.53
2023-01-13T13:35:03.225Z,66.68
2023-01-13T13:40:03.492Z,62.88
2023-01-13T13:45:03.193Z,64.78
2023-01-13T13:50:02.820Z,68.18
2023-01-13T13:55:03.105Z,67.53
2023-01-13T14:00:02.692Z,69.98
2023-01-13T14:05:02.988Z,71.27
2023-01-13T14:10:02.679Z,69.26
2023-01-13T14:15:02.976Z,69.89
2023-01-13T14:20:02.584Z,69.55
2023-01-13T14:25:03.343Z,69.79
2023-01-13T14:30:03.092Z,71.8
2023-01-13T14:35:03.065Z,71.78
2023-01-13T14:40:02.613Z,71.09
2023-01-13T14:45:02.664Z,70.13
2023-01-13T14:50:02.436Z,71.44
2023-01-13T14:55:03.754Z,72.24
2023-01-13T15:00:03.024Z,74.08
2023-01-13T15:05:02.846Z,72.07
2023-01-13T15:10:02.716Z,74.12
2023-01-13T15:15:02.560Z,73.47
2023-01-13T15:20:03.607Z,72.44
2023-01-13T15:25:03.296Z,73.71
2023-01-13T15:30:03.133Z,78.87
2023-01-13T15:35:02.901Z,79.65
2023-01-13T15:40:03.012Z,81.37
2023-01-13T15:45:02.757Z,80.61
2023-01-13T15:50:03.275Z,81.19
2023-01-13T15:55:03.566Z,79.24
2023-01-13T16:00:02.852Z,77.84
2023-01-13T16:05:02.586Z,77.54
2023-01-13T16:10:03.448Z,78.25
2023-01-13T16:15:04.381Z,77.46
2023-01-13T16:20:03.133Z,77.46
2023-01-13T16:25:03.046Z,76.28
2023-01-13T16:30:03.147Z,77.65
2023-01-13T16:35:03.369Z,74.8
2023-01-13T16:40:03.365Z,72.18
2023-01-13T16:45:03.015Z,72.49
2023-01-13T16:50:02.874Z,75.99
2023-01-13T16:55:03.354Z,77.8
2023-01-13T17:00:02.202Z,81.58
2023-01-13T17:10:02.833Z,84.62
2023-01-13T17:15:02.654Z,84.82
2023-01-13T17:20:03.318Z,82.92
2023-01-13T17:25:03.144Z,84.19
2023-01-13T17:30:03.277Z,85
2023-01-13T17:35:02.507Z,81.53
2023-01-13T17:40:02.699Z,80.91
2023-01-13T17:45:02.525Z,81.72
2023-01-13T17:50:03.195Z,80.72
2023-01-13T17:55:03.489Z,81.72
2023-01-13T18:00:02.835Z,82.42
2023-01-13T18:05:03.108Z,81.65
2023-01-13T18:10:02.997Z,80.95
2023-01-13T18:15:02.661Z,78.76
2023-01-13T18:20:03.446Z,81.33
2023-01-13T18:25:03.274Z,79.41
2023-01-13T18:30:03.149Z,80.67
2023-01-13T18:35:07.464Z,81.41
2023-01-13T18:40:03.436Z,81.26
2023-01-13T18:45:02.928Z,81.64
2023-01-13T18:50:02.759Z,81.16
2023-01-13T18:55:02.734Z,81.17
2023-01-13T19:00:03.529Z,83.01
2023-01-13T19:05:03.417Z,80.39
2023-01-13T19:10:03.089Z,83.39
2023-01-13T19:15:02.863Z,81.71
2023-01-13T19:20:02.533Z,80.21
2023-01-13T19:25:03.347Z,80.7
2023-01-13T19:30:04.675Z,79.6
2023-01-13T19:35:02.999Z,81.32
2023-01-13T19:40:02.756Z,81.07
2023-01-13T19:45:02.768Z,81.19
2023-01-13T19:50:02.513Z,81.76
2023-01-13T19:55:02.741Z,80.89
2023-01-13T20:00:03.360Z,81.62
2023-01-13T20:05:02.966Z,82.52
2023-01-13T20:10:03.189Z,81.05
2023-01-13T20:15:02.965Z,83.58
2023-01-13T20:20:02.757Z,81.82
2023-01-13T20:25:02.651Z,83
2023-01-13T20:30:03.319Z,81.78
2023-01-13T20:35:04.376Z,82.34
2023-01-13T20:40:02.968Z,83.32
2023-01-13T20:45:02.938Z,83.65
2023-01-13T20:50:07.809Z,83.3
2023-01-13T20:55:03.926Z,83.11
2023-01-13T21:00:03.321Z,82.5
2023-01-13T21:05:03.186Z,82.35
2023-01-13T21:10:02.794Z,81.63
2023-01-13T21:15:02.802Z,81.95
2023-01-13T21:20:04.967Z,81.85
2023-01-13T21:25:03.020Z,81.6
2023-01-13T21:30:03.786Z,80.48
2023-01-13T21:35:03.330Z,81.92
2023-01-13T21:40:03.145Z,82.85
2023-01-13T21:45:02.913Z,82.6
2023-01-13T21:50:02.619Z,82.66
2023-01-13T21:55:03.534Z,83.94
2023-01-13T22:00:02.955Z,84.5
2023-01-13T22:05:02.845Z,82.01
2023-01-13T22:10:02.644Z,83.84
2023-01-13T22:15:03.053Z,83.1
2023-01-13T22:20:03.215Z,82.09
2023-01-13T22:25:03.076Z,82.95
2023-01-13T22:30:03.113Z,82.36
2023-01-13T22:35:03.228Z,82.49
2023-01-13T22:40:02.874Z,83.03
2023-01-13T22:45:02.877Z,83.48
2023-01-13T22:50:02.536Z,84.18
2023-01-13T22:55:02.996Z,83.1
2023-01-13T23:00:02.876Z,83.77
2023-01-13T23:05:03.446Z,83.14
2023-01-13T23:10:03.140Z,83.15
2023-01-13T23:15:03.061Z,82.06
2023-01-13T23:20:02.943Z,82.57
2023-01-13T23:25:02.701Z,82.51
2023-01-13T23:30:03.513Z,84.55
2023-01-13T23:35:03.190Z,83.93
2023-01-13T23:40:02.905Z,83.92
2023-01-13T23:45:02.591Z,84.05
2023-01-13T23:50:03.227Z,84.46
2023-01-13T23:55:03.440Z,84.11
